Time;durP1;ratioP1;P1;durP2;ratioP2;P2;SDS_P1;SDS_P2;PMS_P1;PMS_P2;Temp;Humidity;BMP_temperature;BMP_pressure;BME280_temperature;BME280_humidity;BME280_pressure;Samples;Min_cycle;Max_cycle;Signal;HPM_P1;HPM_P2
2021/06/13 00:01:59;;;;;;;6.80;2.55;;;11.30;99.90;;;;;;5053966;28;20491;-45
2021/06/13 00:04:24;;;;;;;7.38;2.42;;;11.30;99.90;;;;;;5041416;28;20079;-46
2021/06/13 00:06:53;;;;;;;6.90;2.38;;;11.30;99.90;;;;;;5034019;28;20099;-46
2021/06/13 00:09:20;;;;;;;6.65;3.08;;;11.30;99.90;;;;;;5034315;28;20025;-45
2021/06/13 00:11:46;;;;;;;4.35;2.42;;;11.50;99.90;;;;;;5032797;28;20535;-46
2021/06/13 00:14:11;;;;;;;5.78;2.63;;;11.50;99.90;;;;;;5034128;28;20042;-48
2021/06/13 00:16:37;;;;;;;4.55;1.88;;;11.60;99.90;;;;;;5033655;28;20030;-46
2021/06/13 00:19:03;;;;;;;5.75;2.15;;;11.60;99.90;;;;;;5034129;28;20021;-44
2021/06/13 00:21:28;;;;;;;4.55;2.25;;;11.50;99.90;;;;;;5033762;28;20358;-45
2021/06/13 00:23:54;;;;;;;4.68;2.50;;;11.50;99.90;;;;;;5033913;28;20061;-46
2021/06/13 00:26:20;;;;;;;8.20;3.10;;;11.40;99.90;;;;;;5033673;28;20037;-46
2021/06/13 00:28:45;;;;;;;8.07;2.92;;;11.30;99.90;;;;;;5032862;28;20030;-46
2021/06/13 00:31:11;;;;;;;4.18;2.30;;;11.30;99.90;;;;;;5033490;28;20087;-48
2021/06/13 00:33:37;;;;;;;8.07;1.52;;;11.20;99.90;;;;;;5032421;28;20071;-44
2021/06/13 00:36:03;;;;;;;3.28;1.80;;;11.20;99.90;;;;;;5033483;28;20022;-46
2021/06/13 00:38:29;;;;;;;8.45;2.72;;;11.10;99.90;;;;;;5033549;28;20151;-45
2021/06/13 00:40:54;;;;;;;6.22;2.30;;;11.10;99.90;;;;;;5050009;28;20104;-47
2021/06/13 00:43:20;;;;;;;7.05;2.35;;;11.00;99.90;;;;;;5052456;28;20025;-46
2021/06/13 00:45:46;;;;;;;4.72;1.90;;;11.00;99.90;;;;;;5052882;28;20021;-50
2021/06/13 00:48:11;;;;;;;6.85;2.38;;;11.00;99.90;;;;;;5052192;28;20025;-44
2021/06/13 00:50:41;;;;;;;5.90;2.35;;;10.90;99.90;;;;;;5052829;28;20021;-48
2021/06/13 00:53:08;;;;;;;4.70;2.13;;;10.90;99.90;;;;;;5053473;28;20052;-47
2021/06/13 00:55:36;;;;;;;5.57;2.05;;;10.90;99.90;;;;;;5052978;28;20017;-49
2021/06/13 00:58:02;;;;;;;8.05;2.40;;;10.90;99.90;;;;;;5052143;28;20557;-45
2021/06/13 01:00:28;;;;;;;8.18;1.90;;;10.90;99.90;;;;;;5052586;28;20097;-45
2021/06/13 01:02:55;;;;;;;6.05;2.33;;;11.00;99.90;;;;;;5051481;28;20029;-45
2021/06/13 01:05:21;;;;;;;4.38;2.30;;;11.00;99.90;;;;;;5031937;28;20084;-45
2021/06/13 01:08:06;;;;;;;4.38;2.33;;;11.10;99.90;;;;;;5032861;28;20542;-46
2021/06/13 01:10:45;;;;;;;4.45;2.00;;;11.20;99.90;;;;;;5041786;28;20032;-46
2021/06/13 01:13:14;;;;;;;4.75;1.80;;;11.30;99.90;;;;;;5052032;28;20120;-50
2021/06/13 01:15:49;;;;;;;5.00;2.30;;;11.40;99.90;;;;;;5052738;28;20464;-46
2021/06/13 01:18:34;;;;;;;3.42;1.95;;;11.30;99.90;;;;;;5052609;28;20022;-45
2021/06/13 01:21:08;;;;;;;5.13;2.22;;;11.20;99.90;;;;;;5052435;28;20052;-46
2021/06/13 01:24:00;;;;;;;6.68;3.47;;;11.20;99.90;;;;;;5052681;28;20040;-46
2021/06/13 01:27:19;;;;;;;6.53;2.15;;;11.20;99.90;;;;;;5052530;28;20029;-47
2021/06/13 01:29:47;;;;;;;5.18;2.22;;;11.20;99.90;;;;;;5020853;28;20034;-46
2021/06/13 01:32:26;;;;;;;3.78;2.58;;;11.20;99.90;;;;;;5013508;28;20022;-44
2021/06/13 01:34:58;;;;;;;5.55;2.03;;;11.20;99.90;;;;;;5013706;28;20477;-47
2021/06/13 01:37:27;;;;;;;7.63;2.42;;;11.10;99.90;;;;;;5012134;28;20064;-49
2021/06/13 01:39:59;;;;;;;6.60;2.15;;;11.00;99.90;;;;;;5013550;28;20144;-45
2021/06/13 01:42:27;;;;;;;7.03;2.63;;;10.90;99.90;;;;;;5012676;28;20084;-44
2021/06/13 01:44:57;;;;;;;6.72;2.75;;;10.80;99.90;;;;;;5013592;28;20760;-48
2021/06/13 01:47:24;;;;;;;7.18;2.40;;;10.70;99.90;;;;;;5013345;28;20026;-44
2021/06/13 01:49:51;;;;;;;5.03;2.30;;;10.70;99.90;;;;;;5013402;28;20469;-48
2021/06/13 01:52:18;;;;;;;5.32;1.80;;;10.60;99.90;;;;;;5013324;28;20065;-48
2021/06/13 01:54:45;;;;;;;5.78;2.30;;;10.50;99.90;;;;;;5013450;28;20473;-46
2021/06/13 01:57:11;;;;;;;9.50;2.78;;;10.50;99.90;;;;;;5012363;28;20014;-46
2021/06/13 01:59:40;;;;;;;4.82;2.22;;;10.40;99.90;;;;;;5013062;28;20503;-44
2021/06/13 02:02:07;;;;;;;4.10;2.38;;;10.40;99.90;;;;;;5013106;28;20040;-46
2021/06/13 02:04:34;;;;;;;7.65;2.10;;;10.30;99.90;;;;;;5040888;28;20032;-48
2021/06/13 02:07:00;;;;;;;7.22;2.65;;;10.20;99.90;;;;;;5052683;28;20440;-46
2021/06/13 02:09:27;;;;;;;5.40;2.10;;;10.10;99.90;;;;;;5052997;28;20415;-44
2021/06/13 02:11:55;;;;;;;4.45;2.33;;;10.10;99.90;;;;;;5051616;28;20128;-44
2021/06/13 02:14:22;;;;;;;4.78;2.70;;;10.10;99.90;;;;;;5052766;28;20025;-46
2021/06/13 02:16:48;;;;;;;8.38;3.25;;;10.00;99.90;;;;;;5052526;28;20025;-46
2021/06/13 02:19:19;;;;;;;5.00;2.08;;;10.00;99.90;;;;;;5052511;28;20657;-44
2021/06/13 02:21:46;;;;;;;7.93;2.60;;;10.00;99.90;;;;;;5052575;28;20388;-45
2021/06/13 02:24:15;;;;;;;3.35;2.00;;;9.90;99.90;;;;;;5029589;28;20100;-46
2021/06/13 02:26:42;;;;;;;4.45;2.17;;;9.90;99.90;;;;;;5011741;28;20058;-44
2021/06/13 02:29:09;;;;;;;2.85;1.95;;;10.00;99.90;;;;;;5012892;28;20025;-46
2021/06/13 02:31:39;;;;;;;3.55;1.65;;;9.90;99.90;;;;;;5012668;28;20030;-45
2021/06/13 02:34:06;;;;;;;5.85;1.98;;;9.80;99.90;;;;;;5012712;28;20045;-44
2021/06/13 02:36:32;;;;;;;6.75;2.55;;;9.80;99.90;;;;;;5026169;28;20025;-46
2021/06/13 02:38:58;;;;;;;6.75;1.98;;;9.80;99.90;;;;;;5032486;28;20385;-45
2021/06/13 02:41:24;;;;;;;6.13;2.00;;;9.80;99.90;;;;;;5032382;28;20496;-44
2021/06/13 02:43:50;;;;;;;10.30;2.33;;;9.80;99.90;;;;;;5031466;28;20038;-46
2021/06/13 02:46:16;;;;;;;5.32;2.47;;;9.80;99.90;;;;;;5032369;28;20021;-47
2021/06/13 02:48:41;;;;;;;8.85;2.33;;;9.70;99.90;;;;;;5032167;28;20025;-44
2021/06/13 02:51:08;;;;;;;6.05;2.33;;;9.80;99.90;;;;;;5031146;28;20052;-44
2021/06/13 02:53:42;;;;;;;5.80;2.10;;;9.80;99.90;;;;;;5031985;28;20025;-48
2021/06/13 02:56:30;;;;;;;4.80;2.13;;;9.80;99.90;;;;;;5032258;28;20025;-48
2021/06/13 02:59:20;;;;;;;10.75;2.55;;;10.00;99.90;;;;;;5031902;28;20026;-44
2021/06/13 03:01:49;;;;;;;7.57;3.00;;;10.10;99.90;;;;;;5032173;28;20052;-50
2021/06/13 03:04:19;;;;;;;6.25;2.30;;;10.20;99.90;;;;;;5032071;28;20497;-47
2021/06/13 03:06:52;;;;;;;6.43;1.92;;;10.30;99.90;;;;;;5032274;28;20033;-46
2021/06/13 03:09:24;;;;;;;3.17;1.88;;;10.40;99.90;;;;;;5032184;28;20057;-46
2021/06/13 03:11:50;;;;;;;5.00;1.90;;;10.50;99.90;;;;;;5031038;28;20047;-48
2021/06/13 03:14:17;;;;;;;4.07;2.08;;;10.60;99.90;;;;;;5032281;28;20354;-50
2021/06/13 03:16:43;;;;;;;5.05;2.60;;;10.70;99.90;;;;;;5032227;28;20575;-44
2021/06/13 03:19:10;;;;;;;5.70;2.22;;;10.90;99.90;;;;;;5031930;28;20039;-45
2021/06/13 03:21:37;;;;;;;6.60;1.65;;;10.90;99.90;;;;;;5031972;28;20072;-48
2021/06/13 03:24:05;;;;;;;3.38;1.77;;;10.90;99.90;;;;;;5031957;28;20061;-44
2021/06/13 03:26:31;;;;;;;8.25;2.80;;;10.90;99.90;;;;;;5034763;28;20041;-46
2021/06/13 03:28:59;;;;;;;6.68;2.80;;;10.90;99.90;;;;;;5035746;28;20025;-44
2021/06/13 03:31:25;;;;;;;6.95;2.53;;;10.90;99.90;;;;;;5035884;28;20026;-44
2021/06/13 03:33:53;;;;;;;6.15;1.90;;;11.00;99.90;;;;;;5035635;28;20024;-44
2021/06/13 03:36:20;;;;;;;6.63;2.20;;;11.10;99.90;;;;;;5035499;28;20017;-44
2021/06/13 03:38:48;;;;;;;10.35;2.75;;;11.30;99.90;;;;;;5035507;28;20029;-47
2021/06/13 03:41:14;;;;;;;7.47;2.80;;;12.10;99.90;;;;;;5034389;28;20132;-44
2021/06/13 03:43:41;;;;;;;6.93;2.72;;;13.20;99.90;;;;;;5034576;28;20038;-47
2021/06/13 03:46:08;;;;;;;4.88;2.17;;;14.20;95.70;;;;;;5035532;28;20060;-46
2021/06/13 03:48:34;;;;;;;6.65;2.30;;;15.20;91.90;;;;;;5035509;28;20064;-46
2021/06/13 03:51:01;;;;;;;4.95;2.15;;;16.10;89.60;;;;;;5035109;28;20469;-46
2021/06/13 03:53:27;;;;;;;4.38;2.15;;;16.90;85.10;;;;;;5035380;28;20075;-48
2021/06/13 03:55:53;;;;;;;8.57;2.10;;;17.70;81.70;;;;;;5035340;28;20460;-44
2021/06/13 03:58:24;;;;;;;4.57;1.70;;;18.40;78.10;;;;;;5034432;28;20047;-44
2021/06/13 04:00:51;;;;;;;5.55;2.10;;;18.90;76.30;;;;;;5035189;28;20646;-46
2021/06/13 04:03:19;;;;;;;5.00;1.80;;;19.50;75.00;;;;;;5035080;28;20032;-46
2021/06/13 04:05:47;;;;;;;9.18;2.42;;;20.10;72.50;;;;;;5034980;28;20022;-44
2021/06/13 04:08:14;;;;;;;6.70;1.98;;;20.60;70.30;;;;;;5035076;28;20030;-48
2021/06/13 04:10:44;;;;;;;3.35;1.85;;;21.10;69.10;;;;;;5035254;28;20049;-44
2021/06/13 04:13:11;;;;;;;7.20;2.20;;;21.70;67.70;;;;;;5033941;28;20420;-44
2021/06/13 04:15:38;;;;;;;3.97;1.70;;;22.50;65.10;;;;;;5035106;28;20384;-45
2021/06/13 04:18:04;;;;;;;8.32;1.92;;;22.70;64.40;;;;;;5034647;28;20117;-44
2021/06/13 04:20:30;;;;;;;5.45;2.20;;;21.60;65.30;;;;;;5034848;28;20104;-48
2021/06/13 04:22:57;;;;;;;4.93;1.95;;;20.50;67.90;;;;;;5034759;28;20052;-44
2021/06/13 04:25:22;;;;;;;3.95;1.83;;;19.20;68.90;;;;;;5034947;28;20025;-47
2021/06/13 04:27:51;;;;;;;11.80;2.20;;;18.40;71.60;;;;;;5033838;28;20051;-45
2021/06/13 04:30:16;;;;;;;5.38;2.03;;;17.70;73.00;;;;;;5034769;28;20034;-45
2021/06/13 04:32:42;;;;;;;6.13;2.00;;;17.60;73.30;;;;;;5034022;28;20365;-44
2021/06/13 04:35:08;;;;;;;5.68;2.30;;;17.60;73.10;;;;;;5034524;28;20032;-45
2021/06/13 04:37:33;;;;;;;4.05;1.70;;;17.70;73.40;;;;;;5033268;28;20033;-47
2021/06/13 04:39:59;;;;;;;4.82;2.03;;;19.10;70.70;;;;;;5034585;28;20033;-46
2021/06/13 04:42:24;;;;;;;6.63;2.05;;;20.60;67.20;;;;;;5033590;28;20036;-47
2021/06/13 04:44:50;;;;;;;8.50;2.10;;;20.40;65.80;;;;;;5034563;28;20041;-46
2021/06/13 04:47:15;;;;;;;7.13;1.88;;;19.70;67.10;;;;;;5034281;28;20033;-47
2021/06/13 04:49:43;;;;;;;7.65;1.80;;;19.10;68.60;;;;;;5034370;28;20025;-47
2021/06/13 04:52:14;;;;;;;6.65;2.15;;;18.70;69.40;;;;;;5031850;28;20499;-44
2021/06/13 04:55:08;;;;;;;5.05;1.98;;;18.50;69.70;;;;;;5034225;28;20033;-44
2021/06/13 04:57:55;;;;;;;6.00;1.98;;;18.20;67.10;;;;;;5033191;28;20022;-47
2021/06/13 05:00:22;;;;;;;7.82;1.85;;;17.70;69.70;;;;;;5032756;28;20049;-44
2021/06/13 05:02:47;;;;;;;5.55;1.95;;;17.40;72.00;;;;;;5034121;28;20036;-48
2021/06/13 05:05:16;;;;;;;5.32;2.00;;;17.30;72.60;;;;;;5034006;28;20029;-45
2021/06/13 05:07:42;;;;;;;2.53;1.55;;;17.40;72.30;;;;;;5033875;28;20025;-47
2021/06/13 05:10:09;;;;;;;4.03;1.67;;;17.60;71.70;;;;;;5033839;28;20029;-46
2021/06/13 05:12:49;;;;;;;6.25;2.03;;;17.40;71.80;;;;;;5032932;28;20021;-49
2021/06/13 05:15:15;;;;;;;6.18;1.98;;;17.10;72.10;;;;;;5033945;28;20026;-44
2021/06/13 05:17:41;;;;;;;3.47;2.00;;;16.80;72.90;;;;;;5033831;28;20362;-53
2021/06/13 05:20:07;;;;;;;4.53;1.63;;;16.50;73.30;;;;;;5032532;28;20044;-45
2021/06/13 05:22:52;;;;;;;4.97;1.77;;;16.20;73.90;;;;;;5029918;28;20508;-47
2021/06/13 05:25:18;;;;;;;7.18;2.22;;;15.90;74.40;;;;;;5033296;28;20133;-44
2021/06/13 05:27:44;;;;;;;4.88;1.85;;;15.70;75.60;;;;;;5030659;28;20029;-44
2021/06/13 05:30:11;;;;;;;3.45;1.40;;;15.50;76.10;;;;;;5033313;28;20066;-46
2021/06/13 05:32:36;;;;;;;4.90;2.08;;;15.50;76.50;;;;;;5031162;28;20029;-46
2021/06/13 05:35:02;;;;;;;5.63;1.80;;;15.40;76.90;;;;;;5033086;28;20504;-49
2021/06/13 05:37:28;;;;;;;9.40;2.13;;;15.30;77.10;;;;;;5032964;28;20021;-44
2021/06/13 05:39:53;;;;;;;8.15;2.53;;;15.20;77.40;;;;;;5033280;28;20033;-44
2021/06/13 05:42:19;;;;;;;4.75;1.58;;;15.10;77.80;;;;;;5032148;28;20025;-44
2021/06/13 05:44:45;;;;;;;7.90;1.85;;;15.10;78.20;;;;;;5034452;28;20029;-45
2021/06/13 05:47:10;;;;;;;6.18;2.13;;;15.10;78.50;;;;;;5032462;28;20039;-45
2021/06/13 05:49:35;;;;;;;7.75;1.80;;;15.00;78.70;;;;;;5033013;28;20057;-48
2021/06/13 05:52:01;;;;;;;6.43;1.90;;;15.00;79.10;;;;;;5032610;28;20033;-45
2021/06/13 05:54:27;;;;;;;7.32;2.10;;;14.90;79.50;;;;;;5032836;28;20029;-45
2021/06/13 05:56:52;;;;;;;6.38;2.03;;;14.90;79.90;;;;;;5032086;28;20032;-51
2021/06/13 05:59:17;;;;;;;4.97;1.92;;;14.90;80.00;;;;;;5032636;28;20380;-48
2021/06/13 06:01:43;;;;;;;4.97;1.65;;;14.90;80.20;;;;;;5032737;28;20084;-54
2021/06/13 06:04:08;;;;;;;5.25;2.30;;;14.90;80.30;;;;;;5032705;28;20029;-48
2021/06/13 06:06:34;;;;;;;4.80;1.90;;;14.90;80.30;;;;;;5032526;28;20044;-45
2021/06/13 06:08:59;;;;;;;8.65;2.30;;;14.90;80.30;;;;;;5032092;28;20155;-46
2021/06/13 06:11:25;;;;;;;7.07;2.38;;;14.90;80.40;;;;;;5031799;28;20155;-48
2021/06/13 06:13:53;;;;;;;8.23;1.58;;;14.90;80.40;;;;;;5032585;28;20029;-45
2021/06/13 06:16:20;;;;;;;5.32;2.00;;;15.00;80.20;;;;;;5032474;28;20073;-44
2021/06/13 06:18:46;;;;;;;7.90;2.10;;;15.00;80.10;;;;;;5032663;28;20025;-47
2021/06/13 06:21:11;;;;;;;3.65;2.03;;;15.10;79.90;;;;;;5032242;28;20072;-45
2021/06/13 06:23:37;;;;;;;6.30;1.95;;;15.20;79.80;;;;;;5032064;28;20048;-47
2021/06/13 06:26:02;;;;;;;6.95;2.42;;;15.20;80.10;;;;;;5032385;28;20018;-44
2021/06/13 06:28:27;;;;;;;7.65;2.13;;;15.30;79.40;;;;;;5031446;28;20037;-48
2021/06/13 06:30:53;;;;;;;5.47;2.10;;;15.30;79.40;;;;;;5028102;28;20105;-44
2021/06/13 06:33:18;;;;;;;6.10;1.60;;;15.20;79.50;;;;;;5012547;28;20500;-46
2021/06/13 06:35:44;;;;;;;7.50;2.25;;;15.20;79.60;;;;;;5019550;28;20033;-46
2021/06/13 06:38:10;;;;;;;5.40;2.00;;;15.20;79.90;;;;;;5032117;28;20385;-45
2021/06/13 06:40:35;;;;;;;6.53;1.85;;;15.20;79.90;;;;;;5032210;28;20026;-43
2021/06/13 06:43:01;;;;;;;6.80;1.73;;;15.20;79.70;;;;;;5031603;28;20409;-46
2021/06/13 06:45:26;;;;;;;4.93;1.92;;;15.30;79.30;;;;;;5031016;28;20071;-44
2021/06/13 06:47:52;;;;;;;8.63;2.20;;;15.50;79.10;;;;;;5032496;28;20136;-46
2021/06/13 06:50:18;;;;;;;3.67;1.75;;;15.60;78.60;;;;;;5032125;28;20071;-45
2021/06/13 06:52:44;;;;;;;5.63;2.10;;;15.90;78.20;;;;;;5032479;28;20385;-44
2021/06/13 06:55:10;;;;;;;5.60;1.60;;;16.00;77.60;;;;;;5032048;28;20035;-44
2021/06/13 06:57:38;;;;;;;2.80;1.42;;;16.10;77.40;;;;;;5031465;28;20026;-44
2021/06/13 07:00:08;;;;;;;4.97;1.55;;;16.10;76.90;;;;;;5033360;28;20489;-46
2021/06/13 07:02:34;;;;;;;3.40;1.98;;;16.10;76.90;;;;;;5036302;28;20480;-46
2021/06/13 07:05:00;;;;;;;7.15;1.73;;;16.10;77.20;;;;;;5053805;28;20087;-46
2021/06/13 07:07:25;;;;;;;4.80;1.60;;;16.10;77.20;;;;;;5056174;28;20476;-44
2021/06/13 07:09:51;;;;;;;6.85;2.35;;;16.10;77.20;;;;;;5056018;28;20032;-48
2021/06/13 07:12:16;;;;;;;8.20;2.15;;;16.10;77.30;;;;;;5055168;28;20392;-46
2021/06/13 07:14:42;;;;;;;4.10;1.80;;;16.20;76.90;;;;;;5056058;28;20469;-44
2021/06/13 07:17:07;;;;;;;4.85;1.90;;;16.20;76.70;;;;;;5056002;28;20025;-45
2021/06/13 07:19:33;;;;;;;8.32;2.20;;;16.40;76.20;;;;;;5055738;28;20028;-44
2021/06/13 07:21:58;;;;;;;5.43;2.00;;;16.50;75.40;;;;;;5056014;28;20025;-44
2021/06/13 07:24:24;;;;;;;5.00;1.58;;;16.60;74.90;;;;;;5055582;28;20021;-46
2021/06/13 07:26:49;;;;;;;6.22;1.90;;;16.80;74.60;;;;;;5055020;28;20035;-46
2021/06/13 07:29:15;;;;;;;3.95;2.20;;;16.90;74.20;;;;;;5055655;28;20028;-44
2021/06/13 07:31:40;;;;;;;6.07;2.55;;;17.00;73.60;;;;;;5055747;28;20469;-47
2021/06/13 07:34:06;;;;;;;8.65;2.17;;;17.10;73.10;;;;;;5055470;28;20040;-45
2021/06/13 07:36:34;;;;;;;6.22;1.80;;;17.10;72.90;;;;;;5041688;28;20026;-46
2021/06/13 07:38:59;;;;;;;5.20;1.63;;;17.10;72.70;;;;;;5035661;28;20049;-45
2021/06/13 07:41:25;;;;;;;7.57;2.08;;;17.10;72.50;;;;;;5034250;28;20211;-44
2021/06/13 07:43:50;;;;;;;4.57;2.00;;;17.10;72.70;;;;;;5035697;28;20025;-46
2021/06/13 07:46:16;;;;;;;9.90;2.55;;;17.10;72.50;;;;;;5031704;28;20034;-46
2021/06/13 07:48:41;;;;;;;10.95;2.63;;;17.30;72.20;;;;;;5035087;28;20029;-47
2021/06/13 07:51:09;;;;;;;4.65;2.05;;;17.50;71.50;;;;;;5034494;28;20038;-46
2021/06/13 07:53:34;;;;;;;6.60;2.20;;;17.50;71.30;;;;;;5034885;28;20017;-46
2021/06/13 07:56:00;;;;;;;8.00;2.33;;;17.40;71.00;;;;;;5035155;28;20284;-44
2021/06/13 07:58:25;;;;;;;8.90;2.33;;;17.30;71.30;;;;;;5034039;28;20108;-44
2021/06/13 08:00:51;;;;;;;5.78;2.13;;;17.20;71.30;;;;;;5035008;28;20046;-44
2021/06/13 08:03:16;;;;;;;7.35;2.30;;;17.10;71.60;;;;;;5038396;28;20407;-45
2021/06/13 08:05:43;;;;;;;6.35;1.95;;;17.20;71.80;;;;;;5054914;28;20083;-48
2021/06/13 08:08:10;;;;;;;7.35;2.25;;;17.40;71.30;;;;;;5050221;28;20026;-46
2021/06/13 08:10:36;;;;;;;5.38;1.95;;;17.70;70.00;;;;;;5034389;28;20431;-46
2021/06/13 08:13:03;;;;;;;3.45;1.77;;;18.00;70.60;;;;;;5034081;28;20064;-46
2021/06/13 08:15:30;;;;;;;7.18;1.92;;;18.10;69.40;;;;;;5034735;28;20029;-48
2021/06/13 08:17:56;;;;;;;5.18;1.60;;;18.00;68.80;;;;;;5034693;28;20021;-46
2021/06/13 08:20:22;;;;;;;4.93;1.75;;;18.00;68.90;;;;;;5034513;28;20049;-44
2021/06/13 08:22:47;;;;;;;5.50;2.00;;;18.30;68.70;;;;;;5034800;28;20068;-46
2021/06/13 08:25:14;;;;;;;4.60;1.80;;;18.60;68.30;;;;;;5034595;28;20057;-47
2021/06/13 08:27:40;;;;;;;6.50;1.88;;;18.70;67.60;;;;;;5033871;28;20041;-46
2021/06/13 08:30:08;;;;;;;5.97;1.50;;;18.70;67.60;;;;;;5034763;28;20151;-46
2021/06/13 08:32:34;;;;;;;4.65;2.30;;;18.70;67.60;;;;;;5034413;28;20038;-44
2021/06/13 08:35:00;;;;;;;5.43;1.70;;;18.60;67.40;;;;;;5034540;28;20025;-46
2021/06/13 08:37:25;;;;;;;9.82;2.20;;;18.30;67.80;;;;;;5030288;28;20029;-44
2021/06/13 08:39:51;;;;;;;4.55;1.80;;;18.00;68.30;;;;;;5034475;28;20022;-44
2021/06/13 08:42:17;;;;;;;6.30;1.73;;;17.70;68.70;;;;;;5033455;28;20021;-45
2021/06/13 08:44:43;;;;;;;3.00;1.52;;;17.50;69.30;;;;;;5034270;28;20041;-47
2021/06/13 08:47:12;;;;;;;3.95;1.60;;;17.40;69.70;;;;;;5034143;28;20036;-44
2021/06/13 08:49:37;;;;;;;4.60;2.10;;;17.20;69.50;;;;;;5034124;28;20048;-45
2021/06/13 08:52:04;;;;;;;6.85;1.98;;;17.20;69.30;;;;;;5034225;28;20123;-45
2021/06/13 08:54:30;;;;;;;5.22;2.08;;;17.10;69.40;;;;;;5034104;28;20092;-44
2021/06/13 08:56:56;;;;;;;6.00;2.13;;;17.30;69.20;;;;;;5031651;28;20025;-44
2021/06/13 08:59:21;;;;;;;4.15;1.83;;;17.40;68.80;;;;;;5033761;28;20040;-45
2021/06/13 09:01:47;;;;;;;7.60;2.22;;;17.50;68.50;;;;;;5033799;28;20021;-44
2021/06/13 09:04:12;;;;;;;5.43;1.88;;;17.70;68.40;;;;;;5034195;28;20076;-44
2021/06/13 09:06:38;;;;;;;4.32;1.98;;;17.90;68.10;;;;;;5033909;28;20435;-47
2021/06/13 09:09:20;;;;;;;4.65;1.85;;;18.00;67.70;;;;;;5034081;28;20036;-46
2021/06/13 09:12:06;;;;;;;3.28;1.67;;;18.10;66.20;;;;;;5032689;28;20033;-49
2021/06/13 09:14:39;;;;;;;4.75;1.48;;;18.20;67.30;;;;;;5033872;28;20026;-44
2021/06/13 09:17:16;;;;;;;2.33;1.60;;;18.20;66.70;;;;;;5033789;28;20353;-44
2021/06/13 09:20:04;;;;;;;6.43;1.30;;;18.20;66.20;;;;;;5033778;28;20072;-44
2021/06/13 09:22:30;;;;;;;3.60;1.70;;;18.00;66.20;;;;;;5032997;28;20045;-46
2021/06/13 09:25:15;;;;;;;6.88;1.80;;;17.80;67.20;;;;;;5033652;28;20025;-44
2021/06/13 09:28:02;;;;;;;6.47;1.92;;;17.80;67.80;;;;;;5031085;28;20033;-47
2021/06/13 09:30:32;;;;;;;8.80;1.83;;;17.80;67.80;;;;;;5033245;28;20037;-46
2021/06/13 09:33:04;;;;;;;4.38;1.50;;;17.90;67.60;;;;;;5033475;28;20025;-46
2021/06/13 09:35:30;;;;;;;6.95;1.65;;;17.80;67.30;;;;;;5029322;28;20022;-47
2021/06/13 09:38:13;;;;;;;4.63;2.10;;;17.80;67.50;;;;;;5032219;28;20101;-46
2021/06/13 09:40:41;;;;;;;5.03;1.50;;;17.80;67.40;;;;;;5033162;28;20026;-46
2021/06/13 09:43:15;;;;;;;8.30;2.00;;;17.70;67.50;;;;;;5032411;28;20089;-44
2021/06/13 09:45:50;;;;;;;10.40;1.90;;;17.70;67.70;;;;;;5032729;28;20056;-48
2021/06/13 09:48:17;;;;;;;2.43;1.37;;;17.70;67.80;;;;;;5033187;28;20076;-44
2021/06/13 09:50:46;;;;;;;6.18;1.58;;;17.50;68.80;;;;;;5033004;28;20037;-44
2021/06/13 09:53:31;;;;;;;4.47;1.73;;;17.50;68.30;;;;;;5033008;28;20018;-44
2021/06/13 09:56:04;;;;;;;3.83;1.60;;;17.50;68.30;;;;;;5033150;28;20451;-45
2021/06/13 09:58:32;;;;;;;3.53;1.50;;;17.50;68.30;;;;;;5031691;28;20025;-46
2021/06/13 10:01:08;;;;;;;5.05;1.75;;;17.50;68.50;;;;;;5032782;28;20072;-45
2021/06/13 10:03:38;;;;;;;7.25;2.17;;;17.60;68.40;;;;;;5038357;28;20512;-44
2021/06/13 10:06:06;;;;;;;7.53;1.88;;;17.70;68.30;;;;;;5052822;28;20045;-49
2021/06/13 10:08:34;;;;;;;6.13;2.10;;;17.90;68.10;;;;;;5042489;28;20064;-45
2021/06/13 10:11:02;;;;;;;9.45;2.13;;;18.20;67.70;;;;;;5032771;28;20030;-46
2021/06/13 10:13:39;;;;;;;4.30;1.58;;;18.40;67.40;;;;;;5030912;28;20037;-47
2021/06/13 10:16:05;;;;;;;4.95;1.70;;;18.50;67.00;;;;;;5036114;28;20033;-47
2021/06/13 10:18:31;;;;;;;7.25;2.58;;;18.60;66.80;;;;;;5032669;28;20393;-44
2021/06/13 10:21:07;;;;;;;6.47;1.73;;;18.90;66.10;;;;;;5031991;28;20041;-47
2021/06/13 10:23:34;;;;;;;6.60;1.67;;;19.10;65.00;;;;;;5032655;28;20021;-44
2021/06/13 10:26:00;;;;;;;4.30;1.70;;;19.10;65.60;;;;;;5032628;28;20067;-44
2021/06/13 10:28:25;;;;;;;4.45;1.98;;;19.10;65.80;;;;;;5031665;28;20029;-44
2021/06/13 10:30:51;;;;;;;5.25;2.03;;;19.10;65.60;;;;;;5032483;28;20177;-44
2021/06/13 10:33:16;;;;;;;2.88;1.50;;;19.30;65.70;;;;;;5032635;28;20352;-44
2021/06/13 10:35:42;;;;;;;5.28;1.90;;;19.30;65.60;;;;;;5032097;28;20026;-47
2021/06/13 10:38:08;;;;;;;5.80;1.92;;;19.20;65.70;;;;;;5032583;28;20041;-44
2021/06/13 10:40:33;;;;;;;2.38;1.60;;;18.90;65.80;;;;;;5032432;28;20025;-44
2021/06/13 10:42:59;;;;;;;5.15;2.08;;;18.60;66.40;;;;;;5031547;28;20472;-44
2021/06/13 10:45:31;;;;;;;4.90;1.88;;;18.40;67.20;;;;;;5032360;28;20025;-44
2021/06/13 10:48:04;;;;;;;9.15;2.15;;;18.30;67.50;;;;;;5032436;28;20449;-44
2021/06/13 10:50:35;;;;;;;4.88;2.00;;;18.30;68.50;;;;;;5032268;28;20038;-46
2021/06/13 10:53:03;;;;;;;3.83;1.75;;;18.10;68.00;;;;;;5032275;28;20120;-44
2021/06/13 10:55:51;;;;;;;6.00;1.80;;;18.10;68.40;;;;;;5032393;28;20314;-46
2021/06/13 10:59:02;;;;;;;4.45;1.85;;;18.20;68.70;;;;;;5031587;28;20052;-44
2021/06/13 11:01:29;;;;;;;4.65;1.70;;;18.10;68.60;;;;;;5031871;28;20033;-45
2021/06/13 11:04:04;;;;;;;6.78;2.00;;;18.10;68.80;;;;;;5040287;28;20029;-46
2021/06/13 11:06:38;;;;;;;6.90;1.90;;;18.00;69.50;;;;;;5051591;28;20029;-47
2021/06/13 11:09:06;;;;;;;3.97;1.85;;;17.90;69.40;;;;;;5037038;28;20381;-47
2021/06/13 11:11:39;;;;;;;4.32;1.90;;;18.00;69.50;;;;;;5030965;28;20080;-44
2021/06/13 11:14:25;;;;;;;4.22;1.83;;;18.20;69.50;;;;;;5028801;28;20025;-47
2021/06/13 11:16:54;;;;;;;3.63;1.77;;;18.40;69.00;;;;;;5034203;28;20037;-45
2021/06/13 11:19:30;;;;;;;5.20;1.65;;;18.60;68.70;;;;;;5020371;28;20330;-46
2021/06/13 11:22:15;;;;;;;;;;;18.60;68.10;;;;;;5019782;28;20381;-44
2021/06/13 11:24:45;;;;;;;5.45;2.05;;;18.60;67.20;;;;;;5021299;28;19920;-48
2021/06/13 11:27:12;;;;;;;7.13;2.33;;;18.50;68.10;;;;;;5026906;28;20040;-46
2021/06/13 11:29:51;;;;;;;5.40;2.05;;;18.50;67.30;;;;;;5028340;28;20096;-45
2021/06/13 11:32:37;;;;;;;4.65;1.75;;;18.60;67.10;;;;;;5037823;28;20116;-41
2021/06/13 11:35:31;;;;;;;3.60;1.30;;;18.70;66.70;;;;;;5020325;28;20030;-47
2021/06/13 11:38:23;;;;;;;12.13;2.03;;;19.00;66.10;;;;;;5019475;28;20034;-45
2021/06/13 11:40:56;;;;;;;4.68;1.58;;;19.40;65.40;;;;;;5020692;28;20108;-44
2021/06/13 11:43:25;;;;;;;2.95;1.52;;;19.70;65.20;;;;;;5027931;28;20041;-47
2021/06/13 11:45:52;;;;;;;5.25;1.85;;;19.90;64.40;;;;;;5030474;28;20064;-49
2021/06/13 11:48:22;;;;;;;4.30;1.90;;;19.90;64.20;;;;;;5031078;28;20037;-45
2021/06/13 11:51:05;;;;;;;3.22;1.85;;;19.90;64.00;;;;;;5053027;28;20100;-44
2021/06/13 11:53:50;;;;;;;6.40;1.77;;;20.00;63.40;;;;;;5051325;28;20124;-44
2021/06/13 11:56:34;;;;;;;2.88;1.55;;;20.20;63.10;;;;;;5018524;28;20469;-49
2021/06/13 11:59:00;;;;;;;2.88;1.65;;;20.40;62.10;;;;;;5030116;28;20033;-46
2021/06/13 12:01:27;;;;;;;7.00;1.90;;;20.20;63.00;;;;;;5030687;28;20067;-48
2021/06/13 12:03:56;;;;;;;4.40;2.00;;;20.00;62.90;;;;;;5030682;28;20040;-44
2021/06/13 12:06:22;;;;;;;5.22;1.90;;;19.90;61.60;;;;;;5031184;28;20033;-44
2021/06/13 12:08:50;;;;;;;4.28;2.28;;;19.90;62.60;;;;;;5031552;28;20511;-48
2021/06/13 12:11:42;;;;;;;6.05;1.83;;;20.00;61.90;;;;;;5029909;28;20037;-47
2021/06/13 12:14:26;;;;;;;4.65;1.65;;;20.10;61.50;;;;;;5032305;28;20528;-44
2021/06/13 12:17:14;;;;;;;3.35;1.83;;;20.30;60.30;;;;;;5021369;28;20026;-46
2021/06/13 12:19:48;;;;;;;3.78;2.20;;;20.60;60.70;;;;;;5021527;28;20068;-45
2021/06/13 12:22:38;;;;;;;4.60;1.95;;;20.70;59.70;;;;;;5030132;28;20029;-44
2021/06/13 12:27:46;;;;;;;5.80;2.15;;;20.80;59.30;;;;;;5031355;28;20049;-47
2021/06/13 12:30:16;;;;;;;4.13;2.42;;;21.00;58.80;;;;;;5016511;28;20052;-44
2021/06/13 12:32:52;;;;;;;5.43;2.03;;;21.20;58.40;;;;;;5024350;28;20049;-47
2021/06/13 12:35:18;;;;;;;6.40;2.30;;;21.10;57.70;;;;;;5026652;28;20443;-44
2021/06/13 12:38:09;;;;;;;3.88;1.92;;;20.80;58.40;;;;;;5032211;28;20025;-49
2021/06/13 12:40:58;;;;;;;6.10;2.20;;;20.40;57.50;;;;;;5027461;28;20033;-47
2021/06/13 12:43:44;;;;;;;3.40;2.08;;;20.10;58.40;;;;;;5011348;28;20049;-44
2021/06/13 12:46:11;;;;;;;;;;;19.70;59.50;;;;;;5027572;28;20496;-47
2021/06/13 12:48:37;;;;;;;;;;;19.50;60.00;;;;;;5030896;28;19931;-45
2021/06/13 12:51:03;;;;;;;2.50;1.70;;;19.50;60.50;;;;;;5030431;28;19913;-46
2021/06/13 12:53:45;;;;;;;2.97;1.75;;;19.60;61.30;;;;;;5031135;28;20088;-48
2021/06/13 12:56:12;;;;;;;5.82;2.00;;;19.90;60.10;;;;;;5031630;28;20038;-49
2021/06/13 12:58:42;;;;;;;6.03;2.17;;;20.30;59.70;;;;;;5020093;28;20458;-48
2021/06/13 13:01:09;;;;;;;4.50;2.15;;;20.60;59.10;;;;;;5017791;28;20058;-44
2021/06/13 13:03:43;;;;;;;4.07;2.05;;;20.80;58.50;;;;;;5026207;28;20072;-46